Aktualne dane pomiarowe

Uwaga, wersja testowa! Automatyczne pobieranie danych za pomocą narzędzi lub skryptów to umożliwiających jest zabronione.

Dane meteo z obszaru Polski uzyskane na podstawie depesz SYNOP pobieranych co godzinę z NWS. Najedź myszką na symbol przedstawiony w tabeli, aby uzyskać informacje co do jego znaczenia. Prosimy pamiętać, że to testowa wersja strony, która jeszcze nie jest ukończona. Stworzono również jest krótki FAQ dotyczący korzystania z tej podstrony Anomalie temperatury w chwili obecnej odniesione są do okresu referencyjnego 1951-2016. Okres ten będzie później zmieniony na 1981-2010. Kliknij ikonę aby pobrać plik CSV. Kliknij ikonę aby wygenerować mapę synoptyczną dla danego terminu.

Wybierz Datę:    

        

Tarnów (12575)

Dane terminowe dla wybranej stacji. Kliknij datę, aby otrzymać dane z tego terminu dla wszystkich stacji.

TemperaturaZachmurzenieWiatrCiśnienieOpadyPogoda
 Data t td wb tx tn tg rh  Nt Nl Cl Cm Ch ws wd g1 g2 wx mslp ppp ch 24h 12h t ww ww w1 w2  
2019-07-12 23:00:00 14.0 11.2 12.1--- 8319.0--0---01010.9 986.1 -0.1---------
2019-07-12 22:00:00 13.4 10.6 11.5--- 8317.0--0----1011.1 986.2 0.4---------
2019-07-12 21:00:00 14.0 10.2 11.5--- 7816.0--0---01010.9 986.1 0.9---------
2019-07-12 20:00:00 16.2 10.5 12.6--- 6921.0--0---01010.8 986.2 1.1---------
2019-07-12 19:00:00 19.5 9.9 13.8--- 5428.0--0---01010.1 985.8 0.6---------
2019-07-12 18:00:00 21.1 10.6 14.8 25.2 15.4- 5124.0--1wx--11009.4 985.2 -0.2- 0.012------
2019-07-12 17:00:00 24.1 6.8 14.5--- 3327.0--1wx--11009.1 985.1 -0.6---------
2019-07-12 16:00:00 24.4 5.7 14.1--- 3024.0--1wx--11009.1 985.2 -0.8---------
2019-07-12 15:00:00 23.2 6.9 14.1--- 3527.0--1wx--11009.4 985.4 -0.9---------
2019-07-12 14:00:00 24.7 5.5 14.2--- 2929.0--1wx--11009.6 985.7 -1.1---------
2019-07-12 13:00:00 23.9 4.3 13.4--- 2827.0--1wx--11010.0 986.0 -1.3---------
2019-07-12 12:00:00 23.7 5.1 13.6--- 3028.0--1wx--11010.3 986.3 -1.3- 0.06------
2019-07-12 11:00:00 23.7 5.6 13.8--- 3122.0--1wx--11010.8 986.8 -1.0---------
2019-07-12 10:00:00 23.2 6.5 13.9--- 3427.0--1wx--11011.4 987.3 -0.6---------
2019-07-12 09:00:00 21.9 7.7 13.9--- 4021.0--2wx---1011.8 987.6 -0.4---------
2019-07-12 08:00:00 20.2 7.2 12.9--- 4324.0--1wx--11012.1 987.8 -0.3---------
2019-07-12 07:00:00 18.6 9.4 13.1--- 5522.0--1wx--11012.4 987.9 -0.1---------
2019-07-12 06:00:00 15.5 9.4 11.8 17.7 6.5 6 6728.0--1wx--11012.7 988.0 0.1 4.0 0.012----- 6.7
2019-07-12 05:00:00 11.8 9.2 10.1--- 8418.0--0----1013.2 988.1 0.2---------
2019-07-12 04:00:00 8.1 7.8 7.8--- 9811.0--0---01013.4 988.0 0.0---------
2019-07-12 03:00:00 6.5 5.8 6.0--- 9510.0--0---01013.5 987.9 -0.3---wx-----
2019-07-12 02:00:00 7.1 6.4 6.6--- 959.0--0---01013.4 987.9 -0.6---------
2019-07-12 01:00:00 7.4 6.5 6.7--- 9411.0--0---01013.5 988.0 -0.5---------
2019-07-12 00:00:00 8.0 6.9 7.2--- 9311.0--0---01013.6 988.2 -0.1- 0.06------
2019-07-11 23:00:00 8.7 7.5 7.9--- 9214.0--0---01013.9 988.5 0.3---------
2019-07-11 22:00:00 9.6 8.4 8.7--- 9213.0--1wx--11013.8 988.5 0.7---------
2019-07-11 21:00:00 10.7 8.6 9.3--- 878.0--0---01013.5 988.3 0.9---------
2019-07-11 20:00:00 12.1 8.8 10.0--- 8018.0--1wx--11013.3 988.2 1.1---------
2019-07-11 19:00:00 15.3 9.0 11.5--- 6620.0--1wx--11012.6 987.8 0.6---------
2019-07-11 18:00:00 17.7 8.0 12.1 19.6 12.0- 5319.0--1wx-811011.9 987.4 0.0- 4.012------
2019-07-11 17:00:00 19.1 7.2 12.4--- 4627.0--2wx--21011.5 987.1 -0.3---------
2019-07-11 16:00:00 18.8 7.6 12.4--- 4826.0--2wx--21011.6 987.2 0.1---------
2019-07-11 15:00:00 18.4 7.5 12.2--- 4927.0--2wx-821011.9 987.4 0.2---------
2019-07-11 14:00:00 17.7 8.0 12.1--- 5326.0--2wx-821011.9 987.4 -0.2---------
2019-07-11 13:00:00 17.2 8.6 12.1--- 5729.0--2wx--21011.7 987.1 -0.7---------
2019-07-11 12:00:00 16.7 12.4 13.9--- 7619.0--2wx--21011.8 987.2 -0.4- 4.06------
2019-07-11 11:00:00 13.1 11.3 11.8--- 8925.0--1wx--11012.5 987.6 0.0---wx-----
2019-07-11 10:00:00 12.1 10.8 11.2--- 9211.0--1wx--11012.8 987.8 -0.1---wx-----
2019-07-11 09:00:00 15.6 11.0 12.6--- 7414.0--2wx--21012.3 987.6 -0.1---wx-----
2019-07-11 08:00:00 15.9 11.3 12.9--- 7417.0--2wx--21012.3 987.6 0.0---------
2019-07-11 07:00:00 14.2 11.0 12.1--- 8118.0--1wx---1012.8 987.9 0.2---------
2019-07-11 06:00:00 12.7 11.3 11.7 14.3 10.8 10 9112.0--1wx--11012.7 987.7 0.0 3.2 1.012wx---- 4.1
2019-07-11 05:00:00 12.0 10.7 11.1--- 9210.0--1wx--11012.6 987.6 0.0---wx-----
2019-07-11 04:00:00 11.8 10.4 10.8--- 9113.0--1wx--11012.8 987.7 -0.3---------
2019-07-11 03:00:00 10.9 9.7 10.0--- 925.0--0---01012.8 987.7 -0.9---wx-----
2019-07-11 02:00:00 11.5 9.7 10.3--- 8911.0--1wx--11012.7 987.6 -1.2---------
2019-07-11 01:00:00 11.6 10.5 10.8--- 9311.0--0---01013.1 988.0 -1.0---wx-----
2019-07-11 00:00:00 11.9 10.5 10.9--- 9114.0--1wx--11013.7 988.6 -0.1- 0.86wx-----
1.7 ms

 

Print Friendly, PDF & Email